sensor_id;sensor_type;location;lat;lon;timestamp;temperature;humidity
68215;DHT22;55036;52.138;5.236;2024-03-23T00:52:20;9.60;92.80
68215;DHT22;55036;52.138;5.236;2024-03-23T00:54:46;9.60;92.80
68215;DHT22;55036;52.138;5.236;2024-03-23T00:57:11;9.60;93.30
68215;DHT22;55036;52.138;5.236;2024-03-23T00:59:37;9.60;92.90
68215;DHT22;55036;52.138;5.236;2024-03-23T01:02:03;9.60;93.00
68215;DHT22;55036;52.138;5.236;2024-03-23T01:04:29;9.60;92.80
68215;DHT22;55036;52.138;5.236;2024-03-23T01:06:54;9.60;92.90
68215;DHT22;55036;52.138;5.236;2024-03-23T01:09:20;9.60;93.00
68215;DHT22;55036;52.138;5.236;2024-03-23T01:11:46;9.60;92.90
68215;DHT22;55036;52.138;5.236;2024-03-23T01:14:12;9.60;92.80
68215;DHT22;55036;52.138;5.236;2024-03-23T01:16:37;9.60;92.80
68215;DHT22;55036;52.138;5.236;2024-03-23T01:19:03;9.60;92.90
68215;DHT22;55036;52.138;5.236;2024-03-23T01:21:29;9.60;92.90
68215;DHT22;55036;52.138;5.236;2024-03-23T01:23:55;9.60;92.90
68215;DHT22;55036;52.138;5.236;2024-03-23T01:26:21;9.60;92.90
68215;DHT22;55036;52.138;5.236;2024-03-23T01:28:46;9.50;93.00
68215;DHT22;55036;52.138;5.236;2024-03-23T01:31:12;9.50;93.00
68215;DHT22;55036;52.138;5.236;2024-03-23T01:33:38;9.50;93.00
68215;DHT22;55036;52.138;5.236;2024-03-23T01:36:04;9.50;93.00
68215;DHT22;55036;52.138;5.236;2024-03-23T01:38:30;9.40;92.90
68215;DHT22;55036;52.138;5.236;2024-03-23T01:40:57;9.40;92.90
68215;DHT22;55036;52.138;5.236;2024-03-23T01:43:25;9.40;92.80
68215;DHT22;55036;52.138;5.236;2024-03-23T01:45:51;9.40;92.80
68215;DHT22;55036;52.138;5.236;2024-03-23T01:48:20;9.40;92.60
68215;DHT22;55036;52.138;5.236;2024-03-23T01:50:46;9.30;92.60
68215;DHT22;55036;52.138;5.236;2024-03-23T01:53:14;9.30;92.60
68215;DHT22;55036;52.138;5.236;2024-03-23T01:55:43;9.30;92.50
68215;DHT22;55036;52.138;5.236;2024-03-23T01:58:09;9.20;92.40
68215;DHT22;55036;52.138;5.236;2024-03-23T02:00:35;9.20;92.40
68215;DHT22;55036;52.138;5.236;2024-03-23T02:03:01;9.10;92.30
68215;DHT22;55036;52.138;5.236;2024-03-23T02:05:26;9.10;92.30
68215;DHT22;55036;52.138;5.236;2024-03-23T02:07:53;9.00;92.40
68215;DHT22;55036;52.138;5.236;2024-03-23T02:10:18;9.00;92.40
68215;DHT22;55036;52.138;5.236;2024-03-23T02:12:44;9.00;92.30
68215;DHT22;55036;52.138;5.236;2024-03-23T02:15:10;9.00;92.30
68215;DHT22;55036;52.138;5.236;2024-03-23T02:17:36;8.90;92.20
68215;DHT22;55036;52.138;5.236;2024-03-23T02:20:03;8.90;92.20
68215;DHT22;55036;52.138;5.236;2024-03-23T02:22:38;8.90;92.30
68215;DHT22;55036;52.138;5.236;2024-03-23T02:25:05;8.90;92.20
68215;DHT22;55036;52.138;5.236;2024-03-23T02:27:31;8.90;92.30
68215;DHT22;55036;52.138;5.236;2024-03-23T02:29:57;8.90;92.20
68215;DHT22;55036;52.138;5.236;2024-03-23T02:32:23;8.90;92.20
68215;DHT22;55036;52.138;5.236;2024-03-23T02:34:48;8.80;92.20
68215;DHT22;55036;52.138;5.236;2024-03-23T02:37:14;8.80;92.20
68215;DHT22;55036;52.138;5.236;2024-03-23T02:39:40;8.80;92.20
68215;DHT22;55036;52.138;5.236;2024-03-23T02:42:06;8.80;92.20
68215;DHT22;55036;52.138;5.236;2024-03-23T02:44:31;8.80;92.30
68215;DHT22;55036;52.138;5.236;2024-03-23T02:46:57;8.80;92.20
68215;DHT22;55036;52.138;5.236;2024-03-23T02:49:23;8.70;92.20
68215;DHT22;55036;52.138;5.236;2024-03-23T02:51:49;8.70;92.10
68215;DHT22;55036;52.138;5.236;2024-03-23T02:54:14;8.70;92.00
68215;DHT22;55036;52.138;5.236;2024-03-23T02:56:40;8.70;92.00
68215;DHT22;55036;52.138;5.236;2024-03-23T02:59:06;8.60;91.90
68215;DHT22;55036;52.138;5.236;2024-03-23T03:01:32;8.60;91.90
68215;DHT22;55036;52.138;5.236;2024-03-23T03:03:57;8.50;91.80
68215;DHT22;55036;52.138;5.236;2024-03-23T03:06:26;8.50;91.90
68215;DHT22;55036;52.138;5.236;2024-03-23T03:08:52;8.50;91.80
68215;DHT22;55036;52.138;5.236;2024-03-23T03:11:18;8.40;91.70
68215;DHT22;55036;52.138;5.236;2024-03-23T03:13:44;8.40;91.80
68215;DHT22;55036;52.138;5.236;2024-03-23T03:16:10;8.30;91.70
68215;DHT22;55036;52.138;5.236;2024-03-23T03:18:37;8.40;91.80
68215;DHT22;55036;52.138;5.236;2024-03-23T03:21:03;8.30;91.70
68215;DHT22;55036;52.138;5.236;2024-03-23T03:23:31;8.30;91.70
68215;DHT22;55036;52.138;5.236;2024-03-23T03:25:56;8.30;91.80
68215;DHT22;55036;52.138;5.236;2024-03-23T03:28:23;8.30;91.60
68215;DHT22;55036;52.138;5.236;2024-03-23T03:30:49;8.20;91.60
68215;DHT22;55036;52.138;5.236;2024-03-23T03:33:15;8.20;91.60
68215;DHT22;55036;52.138;5.236;2024-03-23T03:35:40;8.20;91.60
68215;DHT22;55036;52.138;5.236;2024-03-23T03:38:06;8.10;91.50
68215;DHT22;55036;52.138;5.236;2024-03-23T03:40:32;8.10;91.50
68215;DHT22;55036;52.138;5.236;2024-03-23T03:42:57;8.00;91.40
68215;DHT22;55036;52.138;5.236;2024-03-23T03:45:23;8.00;91.40
68215;DHT22;55036;52.138;5.236;2024-03-23T03:47:49;7.90;91.40
68215;DHT22;55036;52.138;5.236;2024-03-23T03:50:15;7.90;91.50
68215;DHT22;55036;52.138;5.236;2024-03-23T03:52:41;7.90;91.50
68215;DHT22;55036;52.138;5.236;2024-03-23T03:55:13;7.90;91.50
68215;DHT22;55036;52.138;5.236;2024-03-23T03:57:39;7.80;91.40
68215;DHT22;55036;52.138;5.236;2024-03-23T04:00:05;7.80;91.30
68215;DHT22;55036;52.138;5.236;2024-03-23T04:02:31;7.70;91.30
68215;DHT22;55036;52.138;5.236;2024-03-23T04:04:57;7.70;91.30
68215;DHT22;55036;52.138;5.236;2024-03-23T04:07:23;7.70;91.30
68215;DHT22;55036;52.138;5.236;2024-03-23T04:09:49;7.70;91.20
68215;DHT22;55036;52.138;5.236;2024-03-23T04:12:15;7.60;91.20
68215;DHT22;55036;52.138;5.236;2024-03-23T04:14:41;7.50;91.20
68215;DHT22;55036;52.138;5.236;2024-03-23T04:17:07;7.60;91.30
68215;DHT22;55036;52.138;5.236;2024-03-23T04:19:33;7.50;91.20
68215;DHT22;55036;52.138;5.236;2024-03-23T04:21:59;7.50;91.10
68215;DHT22;55036;52.138;5.236;2024-03-23T04:24:24;7.50;91.00
68215;DHT22;55036;52.138;5.236;2024-03-23T04:26:52;7.40;91.00
68215;DHT22;55036;52.138;5.236;2024-03-23T04:29:18;7.40;91.10
68215;DHT22;55036;52.138;5.236;2024-03-23T04:31:43;7.40;91.20
68215;DHT22;55036;52.138;5.236;2024-03-23T04:34:09;7.40;91.20
68215;DHT22;55036;52.138;5.236;2024-03-23T04:36:35;7.40;91.00
68215;DHT22;55036;52.138;5.236;2024-03-23T04:39:01;7.30;91.10
68215;DHT22;55036;52.138;5.236;2024-03-23T04:41:27;7.30;91.10
68215;DHT22;55036;52.138;5.236;2024-03-23T04:43:52;7.30;91.00
68215;DHT22;55036;52.138;5.236;2024-03-23T04:46:18;7.20;91.00
68215;DHT22;55036;52.138;5.236;2024-03-23T04:48:44;7.20;91.00
68215;DHT22;55036;52.138;5.236;2024-03-23T04:51:10;7.20;91.00
68215;DHT22;55036;52.138;5.236;2024-03-23T04:53:38;7.20;91.10
68215;DHT22;55036;52.138;5.236;2024-03-23T04:56:04;7.20;91.00
68215;DHT22;55036;52.138;5.236;2024-03-23T04:58:30;7.10;90.90
68215;DHT22;55036;52.138;5.236;2024-03-23T05:00:56;7.10;91.00
68215;DHT22;55036;52.138;5.236;2024-03-23T05:03:23;7.00;90.90
68215;DHT22;55036;52.138;5.236;2024-03-23T05:05:50;7.00;90.80
68215;DHT22;55036;52.138;5.236;2024-03-23T05:08:16;7.00;90.80
68215;DHT22;55036;52.138;5.236;2024-03-23T05:10:42;7.00;90.90
68215;DHT22;55036;52.138;5.236;2024-03-23T05:13:08;7.00;90.90
68215;DHT22;55036;52.138;5.236;2024-03-23T05:15:34;6.90;90.90
68215;DHT22;55036;52.138;5.236;2024-03-23T05:18:00;6.90;90.90
68215;DHT22;55036;52.138;5.236;2024-03-23T05:20:26;6.90;90.90
68215;DHT22;55036;52.138;5.236;2024-03-23T05:22:52;6.90;91.00
68215;DHT22;55036;52.138;5.236;2024-03-23T05:25:18;6.90;91.00
68215;DHT22;55036;52.138;5.236;2024-03-23T05:27:44;6.90;90.90
68215;DHT22;55036;52.138;5.236;2024-03-23T05:30:10;7.00;90.90
68215;DHT22;55036;52.138;5.236;2024-03-23T05:32:36;6.90;91.00
68215;DHT22;55036;52.138;5.236;2024-03-23T05:35:02;6.90;91.00
68215;DHT22;55036;52.138;5.236;2024-03-23T05:37:28;7.00;91.10
68215;DHT22;55036;52.138;5.236;2024-03-23T05:39:53;7.00;91.00
68215;DHT22;55036;52.138;5.236;2024-03-23T05:42:19;7.00;91.00
68215;DHT22;55036;52.138;5.236;2024-03-23T05:44:45;7.10;91.10
68215;DHT22;55036;52.138;5.236;2024-03-23T05:47:11;7.10;91.10
68215;DHT22;55036;52.138;5.236;2024-03-23T05:49:42;7.10;91.10
68215;DHT22;55036;52.138;5.236;2024-03-23T05:52:11;7.20;91.20
68215;DHT22;55036;52.138;5.236;2024-03-23T05:54:37;7.20;91.10
68215;DHT22;55036;52.138;5.236;2024-03-23T05:57:03;7.20;91.20
68215;DHT22;55036;52.138;5.236;2024-03-23T05:59:29;7.30;91.30
68215;DHT22;55036;52.138;5.236;2024-03-23T06:01:55;7.30;91.20
68215;DHT22;55036;52.138;5.236;2024-03-23T06:04:21;7.30;91.10
68215;DHT22;55036;52.138;5.236;2024-03-23T06:06:50;7.30;91.10
68215;DHT22;55036;52.138;5.236;2024-03-23T06:09:17;7.30;91.10
68215;DHT22;55036;52.138;5.236;2024-03-23T06:11:43;7.30;91.10
68215;DHT22;55036;52.138;5.236;2024-03-23T06:14:09;7.30;91.20
68215;DHT22;55036;52.138;5.236;2024-03-23T06:16:35;7.30;91.10
68215;DHT22;55036;52.138;5.236;2024-03-23T06:19:01;7.30;91.30
68215;DHT22;55036;52.138;5.236;2024-03-23T06:21:29;7.40;91.30
68215;DHT22;55036;52.138;5.236;2024-03-23T06:23:55;7.40;91.10
68215;DHT22;55036;52.138;5.236;2024-03-23T06:26:21;7.30;91.20
68215;DHT22;55036;52.138;5.236;2024-03-23T06:28:47;7.40;91.20
68215;DHT22;55036;52.138;5.236;2024-03-23T06:31:13;7.40;91.20
68215;DHT22;55036;52.138;5.236;2024-03-23T06:33:39;7.40;91.10
68215;DHT22;55036;52.138;5.236;2024-03-23T06:36:09;7.40;91.20
68215;DHT22;55036;52.138;5.236;2024-03-23T06:38:35;7.40;91.20
68215;DHT22;55036;52.138;5.236;2024-03-23T06:41:08;7.40;91.40
68215;DHT22;55036;52.138;5.236;2024-03-23T06:43:34;7.50;91.40
68215;DHT22;55036;52.138;5.236;2024-03-23T06:45:59;7.50;91.50
68215;DHT22;55036;52.138;5.236;2024-03-23T06:48:25;7.50;91.50
68215;DHT22;55036;52.138;5.236;2024-03-23T06:50:58;7.50;91.50
68215;DHT22;55036;52.138;5.236;2024-03-23T06:53:24;7.60;92.10
68215;DHT22;55036;52.138;5.236;2024-03-23T06:55:51;7.70;91.20
68215;DHT22;55036;52.138;5.236;2024-03-23T06:58:19;7.70;91.60
68215;DHT22;55036;52.138;5.236;2024-03-23T07:00:45;7.70;91.50
68215;DHT22;55036;52.138;5.236;2024-03-23T07:03:11;7.80;91.70
68215;DHT22;55036;52.138;5.236;2024-03-23T07:05:36;7.90;91.60
68215;DHT22;55036;52.138;5.236;2024-03-23T07:08:02;7.90;91.60
68215;DHT22;55036;52.138;5.236;2024-03-23T07:10:28;8.00;91.20
68215;DHT22;55036;52.138;5.236;2024-03-23T07:12:54;8.00;91.70
68215;DHT22;55036;52.138;5.236;2024-03-23T07:15:20;8.20;91.70
68215;DHT22;55036;52.138;5.236;2024-03-23T07:17:48;8.20;91.20
68215;DHT22;55036;52.138;5.236;2024-03-23T07:20:14;8.30;91.30
68215;DHT22;55036;52.138;5.236;2024-03-23T07:22:40;8.40;91.10
68215;DHT22;55036;52.138;5.236;2024-03-23T07:25:06;8.40;91.40
68215;DHT22;55036;52.138;5.236;2024-03-23T07:27:32;8.60;91.40
68215;DHT22;55036;52.138;5.236;2024-03-23T07:29:59;8.60;90.70
68215;DHT22;55036;52.138;5.236;2024-03-23T07:32:26;8.60;90.90
68215;DHT22;55036;52.138;5.236;2024-03-23T07:34:52;8.70;91.30
68215;DHT22;55036;52.138;5.236;2024-03-23T07:37:18;8.80;91.20
68215;DHT22;55036;52.138;5.236;2024-03-23T07:39:44;9.00;91.20
68215;DHT22;55036;52.138;5.236;2024-03-23T07:42:10;9.10;90.40
68215;DHT22;55036;52.138;5.236;2024-03-23T07:44:36;9.10;89.50
68215;DHT22;55036;52.138;5.236;2024-03-23T07:47:02;9.10;90.50
68215;DHT22;55036;52.138;5.236;2024-03-23T07:49:27;9.20;89.60
68215;DHT22;55036;52.138;5.236;2024-03-23T07:51:53;9.20;90.00
68215;DHT22;55036;52.138;5.236;2024-03-23T07:54:19;9.30;90.00
68215;DHT22;55036;52.138;5.236;2024-03-23T07:56:45;9.40;89.00
68215;DHT22;55036;52.138;5.236;2024-03-23T07:59:11;9.40;89.00
68215;DHT22;55036;52.138;5.236;2024-03-23T08:01:37;9.40;88.30
68215;DHT22;55036;52.138;5.236;2024-03-23T08:04:03;9.40;89.50
68215;DHT22;55036;52.138;5.236;2024-03-23T08:06:28;9.70;90.00
68215;DHT22;55036;52.138;5.236;2024-03-23T08:08:55;9.80;88.70
68215;DHT22;55036;52.138;5.236;2024-03-23T08:11:28;9.90;87.00
68215;DHT22;55036;52.138;5.236;2024-03-23T08:13:55;10.00;88.20
68215;DHT22;55036;52.138;5.236;2024-03-23T08:16:21;9.80;85.10
68215;DHT22;55036;52.138;5.236;2024-03-23T08:18:47;9.70;86.20
68215;DHT22;55036;52.138;5.236;2024-03-23T08:21:12;9.90;88.20
68215;DHT22;55036;52.138;5.236;2024-03-23T08:23:39;10.10;84.80
68215;DHT22;55036;52.138;5.236;2024-03-23T08:26:05;10.20;84.60
68215;DHT22;55036;52.138;5.236;2024-03-23T08:28:31;9.90;82.20
68215;DHT22;55036;52.138;5.236;2024-03-23T08:31:03;9.70;82.00
68215;DHT22;55036;52.138;5.236;2024-03-23T08:33:29;9.80;82.10
68215;DHT22;55036;52.138;5.236;2024-03-23T08:36:03;9.90;83.10
68215;DHT22;55036;52.138;5.236;2024-03-23T08:38:29;10.00;82.90
68215;DHT22;55036;52.138;5.236;2024-03-23T08:41:06;10.30;81.80
68215;DHT22;55036;52.138;5.236;2024-03-23T08:43:37;10.10;81.20
68215;DHT22;55036;52.138;5.236;2024-03-23T08:46:04;10.10;79.00
68215;DHT22;55036;52.138;5.236;2024-03-23T08:48:32;10.00;81.70
68215;DHT22;55036;52.138;5.236;2024-03-23T08:51:02;9.90;81.80
68215;DHT22;55036;52.138;5.236;2024-03-23T08:53:29;9.90;81.30
68215;DHT22;55036;52.138;5.236;2024-03-23T08:55:56;10.00;82.30
68215;DHT22;55036;52.138;5.236;2024-03-23T08:58:23;10.20;80.80
68215;DHT22;55036;52.138;5.236;2024-03-23T09:00:53;10.30;82.10
68215;DHT22;55036;52.138;5.236;2024-03-23T09:03:22;10.50;81.80
68215;DHT22;55036;52.138;5.236;2024-03-23T09:05:49;10.70;81.80
68215;DHT22;55036;52.138;5.236;2024-03-23T09:08:14;10.60;80.10
68215;DHT22;55036;52.138;5.236;2024-03-23T09:10:41;10.20;78.40
68215;DHT22;55036;52.138;5.236;2024-03-23T09:13:08;9.90;81.10
68215;DHT22;55036;52.138;5.236;2024-03-23T09:15:35;9.70;82.10
68215;DHT22;55036;52.138;5.236;2024-03-23T09:18:01;9.50;82.80
68215;DHT22;55036;52.138;5.236;2024-03-23T09:20:27;9.40;83.20
68215;DHT22;55036;52.138;5.236;2024-03-23T09:22:52;9.50;83.50
68215;DHT22;55036;52.138;5.236;2024-03-23T09:25:18;9.50;84.50
68215;DHT22;55036;52.138;5.236;2024-03-23T09:27:47;9.40;83.70
68215;DHT22;55036;52.138;5.236;2024-03-23T09:30:14;9.60;84.80
68215;DHT22;55036;52.138;5.236;2024-03-23T09:32:42;9.60;84.20
68215;DHT22;55036;52.138;5.236;2024-03-23T09:35:08;9.50;83.60
68215;DHT22;55036;52.138;5.236;2024-03-23T09:37:34;9.30;84.00
68215;DHT22;55036;52.138;5.236;2024-03-23T09:40:00;9.10;85.50
68215;DHT22;55036;52.138;5.236;2024-03-23T09:42:26;8.80;85.70
68215;DHT22;55036;52.138;5.236;2024-03-23T09:44:52;8.80;86.70
68215;DHT22;55036;52.138;5.236;2024-03-23T09:47:18;9.30;88.70
68215;DHT22;55036;52.138;5.236;2024-03-23T09:49:44;9.80;88.60
68215;DHT22;55036;52.138;5.236;2024-03-23T09:52:10;10.20;87.10
68215;DHT22;55036;52.138;5.236;2024-03-23T09:54:36;10.50;87.20
68215;DHT22;55036;52.138;5.236;2024-03-23T09:57:02;10.80;87.20
68215;DHT22;55036;52.138;5.236;2024-03-23T09:59:29;11.10;84.40
68215;DHT22;55036;52.138;5.236;2024-03-23T10:01:55;11.40;85.10
68215;DHT22;55036;52.138;5.236;2024-03-23T10:04:37;11.20;79.10
68215;DHT22;55036;52.138;5.236;2024-03-23T10:07:14;11.50;80.60
68215;DHT22;55036;52.138;5.236;2024-03-23T10:09:40;11.40;79.90
68215;DHT22;55036;52.138;5.236;2024-03-23T10:12:10;11.40;75.50
68215;DHT22;55036;52.138;5.236;2024-03-23T10:14:37;11.10;76.80
68215;DHT22;55036;52.138;5.236;2024-03-23T10:17:20;11.00;78.00
68215;DHT22;55036;52.138;5.236;2024-03-23T10:19:51;11.00;80.30
68215;DHT22;55036;52.138;5.236;2024-03-23T10:22:18;11.30;80.40
68215;DHT22;55036;52.138;5.236;2024-03-23T10:24:45;11.40;76.00
68215;DHT22;55036;52.138;5.236;2024-03-23T10:27:16;11.50;76.80
68215;DHT22;55036;52.138;5.236;2024-03-23T10:29:44;11.60;77.70
68215;DHT22;55036;52.138;5.236;2024-03-23T10:32:10;11.50;73.30
68215;DHT22;55036;52.138;5.236;2024-03-23T10:34:37;11.30;75.20
68215;DHT22;55036;52.138;5.236;2024-03-23T10:37:04;11.20;73.50
68215;DHT22;55036;52.138;5.236;2024-03-23T10:39:33;10.90;72.70
68215;DHT22;55036;52.138;5.236;2024-03-23T10:42:04;10.80;75.00
68215;DHT22;55036;52.138;5.236;2024-03-23T10:44:31;10.70;75.30
68215;DHT22;55036;52.138;5.236;2024-03-23T10:47:01;10.40;76.40
68215;DHT22;55036;52.138;5.236;2024-03-23T10:49:32;10.10;78.30
68215;DHT22;55036;52.138;5.236;2024-03-23T10:52:00;9.60;79.60
68215;DHT22;55036;52.138;5.236;2024-03-23T10:54:26;9.70;82.20
68215;DHT22;55036;52.138;5.236;2024-03-23T10:59:24;10.50;80.80
68215;DHT22;55036;52.138;5.236;2024-03-23T11:01:57;10.90;79.20
68215;DHT22;55036;52.138;5.236;2024-03-23T11:04:30;11.00;77.90
68215;DHT22;55036;52.138;5.236;2024-03-23T11:06:57;11.10;79.30
68215;DHT22;55036;52.138;5.236;2024-03-23T11:14:45;10.80;75.10
68215;DHT22;55036;52.138;5.236;2024-03-23T11:17:11;10.50;74.30
68215;DHT22;55036;52.138;5.236;2024-03-23T11:19:38;10.50;77.30
68215;DHT22;55036;52.138;5.236;2024-03-23T11:22:04;10.90;78.70
68215;DHT22;55036;52.138;5.236;2024-03-23T11:24:33;11.40;78.50
68215;DHT22;55036;52.138;5.236;2024-03-23T11:27:00;11.90;76.60
68215;DHT22;55036;52.138;5.236;2024-03-23T11:29:29;12.20;76.40
68215;DHT22;55036;52.138;5.236;2024-03-23T11:31:55;12.70;75.00
68215;DHT22;55036;52.138;5.236;2024-03-23T11:34:22;12.90;72.70
68215;DHT22;55036;52.138;5.236;2024-03-23T11:36:48;12.90;71.00
68215;DHT22;55036;52.138;5.236;2024-03-23T11:39:17;13.00;72.00
68215;DHT22;55036;52.138;5.236;2024-03-23T11:41:50;12.90;69.20
68215;DHT22;55036;52.138;5.236;2024-03-23T11:44:20;12.80;70.40
68215;DHT22;55036;52.138;5.236;2024-03-23T11:46:47;12.50;66.60
68215;DHT22;55036;52.138;5.236;2024-03-23T11:51:48;12.20;69.70
68215;DHT22;55036;52.138;5.236;2024-03-23T11:54:14;12.40;69.50
68215;DHT22;55036;52.138;5.236;2024-03-23T11:56:39;12.60;70.80
68215;DHT22;55036;52.138;5.236;2024-03-23T11:59:06;12.70;70.00
68215;DHT22;55036;52.138;5.236;2024-03-23T12:01:32;12.80;69.80
68215;DHT22;55036;52.138;5.236;2024-03-23T12:03:58;12.50;68.30
68215;DHT22;55036;52.138;5.236;2024-03-23T12:06:24;12.60;68.70
68215;DHT22;55036;52.138;5.236;2024-03-23T12:08:51;12.80;67.80
68215;DHT22;55036;52.138;5.236;2024-03-23T12:11:17;12.80;67.90
68215;DHT22;55036;52.138;5.236;2024-03-23T12:13:45;12.60;67.10
68215;DHT22;55036;52.138;5.236;2024-03-23T12:16:21;12.30;65.90
68215;DHT22;55036;52.138;5.236;2024-03-23T12:18:50;11.80;64.10
68215;DHT22;55036;52.138;5.236;2024-03-23T12:21:20;11.30;67.80
68215;DHT22;55036;52.138;5.236;2024-03-23T12:23:49;11.10;68.80
68215;DHT22;55036;52.138;5.236;2024-03-23T12:26:15;11.30;68.90
68215;DHT22;55036;52.138;5.236;2024-03-23T12:28:43;11.40;69.80
68215;DHT22;55036;52.138;5.236;2024-03-23T12:31:10;11.80;67.10
68215;DHT22;55036;52.138;5.236;2024-03-23T12:33:35;12.00;66.70
68215;DHT22;55036;52.138;5.236;2024-03-23T12:36:01;12.00;66.30
68215;DHT22;55036;52.138;5.236;2024-03-23T12:38:27;12.10;67.70
68215;DHT22;55036;52.138;5.236;2024-03-23T12:40:52;12.00;66.00
68215;DHT22;55036;52.138;5.236;2024-03-23T12:43:18;11.70;66.90
68215;DHT22;55036;52.138;5.236;2024-03-23T12:45:48;11.50;66.70
68215;DHT22;55036;52.138;5.236;2024-03-23T12:48:14;11.30;66.90
68215;DHT22;55036;52.138;5.236;2024-03-23T12:50:40;11.30;66.60
68215;DHT22;55036;52.138;5.236;2024-03-23T12:53:06;11.00;66.90
68215;DHT22;55036;52.138;5.236;2024-03-23T12:55:32;11.10;67.50
68215;DHT22;55036;52.138;5.236;2024-03-23T12:58:00;11.20;67.90
68215;DHT22;55036;52.138;5.236;2024-03-23T13:00:25;11.40;66.10
68215;DHT22;55036;52.138;5.236;2024-03-23T13:02:51;11.20;66.20
68215;DHT22;55036;52.138;5.236;2024-03-23T13:05:17;11.10;67.90
68215;DHT22;55036;52.138;5.236;2024-03-23T13:07:43;11.40;65.30
68215;DHT22;55036;52.138;5.236;2024-03-23T13:10:08;11.50;66.10
68215;DHT22;55036;52.138;5.236;2024-03-23T13:12:34;11.60;64.70
68215;DHT22;55036;52.138;5.236;2024-03-23T13:15:00;11.50;66.10
68215;DHT22;55036;52.138;5.236;2024-03-23T13:17:29;11.00;65.60
68215;DHT22;55036;52.138;5.236;2024-03-23T13:19:55;10.60;67.10
68215;DHT22;55036;52.138;5.236;2024-03-23T13:22:21;10.20;70.10
68215;DHT22;55036;52.138;5.236;2024-03-23T13:24:47;9.80;70.00
68215;DHT22;55036;52.138;5.236;2024-03-23T13:27:13;9.70;70.60
68215;DHT22;55036;52.138;5.236;2024-03-23T13:29:39;9.80;71.30
68215;DHT22;55036;52.138;5.236;2024-03-23T13:32:05;9.70;72.20
68215;DHT22;55036;52.138;5.236;2024-03-23T13:34:31;10.10;72.80
68215;DHT22;55036;52.138;5.236;2024-03-23T13:36:58;10.50;71.60
68215;DHT22;55036;52.138;5.236;2024-03-23T13:39:25;10.70;71.20
68215;DHT22;55036;52.138;5.236;2024-03-23T13:41:52;10.80;71.10
68215;DHT22;55036;52.138;5.236;2024-03-23T13:44:18;10.90;70.10
68215;DHT22;55036;52.138;5.236;2024-03-23T13:46:44;10.80;70.30
68215;DHT22;55036;52.138;5.236;2024-03-23T13:49:30;10.70;69.90
68215;DHT22;55036;52.138;5.236;2024-03-23T13:51:59;10.70;70.60
68215;DHT22;55036;52.138;5.236;2024-03-23T13:54:26;10.70;70.80
68215;DHT22;55036;52.138;5.236;2024-03-23T13:56:53;10.80;70.90
68215;DHT22;55036;52.138;5.236;2024-03-23T13:59:20;11.00;71.30
68215;DHT22;55036;52.138;5.236;2024-03-23T14:01:46;11.10;71.10
68215;DHT22;55036;52.138;5.236;2024-03-23T14:04:13;11.30;70.90
68215;DHT22;55036;52.138;5.236;2024-03-23T14:06:39;11.20;70.70
68215;DHT22;55036;52.138;5.236;2024-03-23T14:09:05;11.10;70.60
68215;DHT22;55036;52.138;5.236;2024-03-23T14:11:35;11.10;70.80
68215;DHT22;55036;52.138;5.236;2024-03-23T14:14:02;11.20;70.70
68215;DHT22;55036;52.138;5.236;2024-03-23T14:16:32;11.30;70.90
68215;DHT22;55036;52.138;5.236;2024-03-23T14:18:59;11.30;71.00
68215;DHT22;55036;52.138;5.236;2024-03-23T14:21:25;11.50;71.10
68215;DHT22;55036;52.138;5.236;2024-03-23T14:23:51;11.60;69.90
68215;DHT22;55036;52.138;5.236;2024-03-23T14:26:17;11.80;69.80
68215;DHT22;55036;52.138;5.236;2024-03-23T14:28:42;11.90;69.70
68215;DHT22;55036;52.138;5.236;2024-03-23T14:31:08;11.90;64.50
68215;DHT22;55036;52.138;5.236;2024-03-23T14:33:39;11.80;65.00
68215;DHT22;55036;52.138;5.236;2024-03-23T14:36:15;11.70;65.90
68215;DHT22;55036;52.138;5.236;2024-03-23T14:38:42;11.50;64.20
68215;DHT22;55036;52.138;5.236;2024-03-23T14:41:08;11.60;65.80
68215;DHT22;55036;52.138;5.236;2024-03-23T14:43:33;11.50;66.00
68215;DHT22;55036;52.138;5.236;2024-03-23T14:46:16;11.60;65.70
68215;DHT22;55036;52.138;5.236;2024-03-23T14:48:46;11.50;63.70
68215;DHT22;55036;52.138;5.236;2024-03-23T14:51:12;11.30;65.30
68215;DHT22;55036;52.138;5.236;2024-03-23T14:53:39;11.40;66.10
68215;DHT22;55036;52.138;5.236;2024-03-23T14:56:07;11.60;66.90
68215;DHT22;55036;52.138;5.236;2024-03-23T14:58:32;11.80;65.60
68215;DHT22;55036;52.138;5.236;2024-03-23T15:01:05;11.80;64.80
68215;DHT22;55036;52.138;5.236;2024-03-23T15:03:38;11.70;64.30
68215;DHT22;55036;52.138;5.236;2024-03-23T15:06:05;11.60;64.00
68215;DHT22;55036;52.138;5.236;2024-03-23T15:08:32;11.60;64.60
68215;DHT22;55036;52.138;5.236;2024-03-23T15:11:01;11.70;65.70
68215;DHT22;55036;52.138;5.236;2024-03-23T15:13:34;11.90;66.20
68215;DHT22;55036;52.138;5.236;2024-03-23T15:16:00;11.80;61.90
68215;DHT22;55036;52.138;5.236;2024-03-23T15:18:25;11.60;64.50
68215;DHT22;55036;52.138;5.236;2024-03-23T15:20:55;11.50;64.40
68215;DHT22;55036;52.138;5.236;2024-03-23T15:23:22;11.50;65.10
68215;DHT22;55036;52.138;5.236;2024-03-23T15:26:01;11.40;65.20
68215;DHT22;55036;52.138;5.236;2024-03-23T15:28:28;11.20;65.00
68215;DHT22;55036;52.138;5.236;2024-03-23T15:31:06;10.90;66.20
68215;DHT22;55036;52.138;5.236;2024-03-23T15:33:32;10.90;66.80
68215;DHT22;55036;52.138;5.236;2024-03-23T15:35:59;10.90;66.80
68215;DHT22;55036;52.138;5.236;2024-03-23T15:38:25;10.80;69.00
68215;DHT22;55036;52.138;5.236;2024-03-23T15:40:52;10.80;70.70
68215;DHT22;55036;52.138;5.236;2024-03-23T15:43:18;10.70;72.80
68215;DHT22;55036;52.138;5.236;2024-03-23T15:45:43;10.90;75.50
68215;DHT22;55036;52.138;5.236;2024-03-23T15:48:09;10.80;73.10
68215;DHT22;55036;52.138;5.236;2024-03-23T15:50:35;11.00;72.80
68215;DHT22;55036;52.138;5.236;2024-03-23T15:53:01;11.20;72.80
68215;DHT22;55036;52.138;5.236;2024-03-23T15:55:28;11.20;73.00
68215;DHT22;55036;52.138;5.236;2024-03-23T15:57:54;11.20;72.90
68215;DHT22;55036;52.138;5.236;2024-03-23T16:00:20;11.40;72.50
68215;DHT22;55036;52.138;5.236;2024-03-23T16:02:45;11.40;71.70
68215;DHT22;55036;52.138;5.236;2024-03-23T16:05:12;11.30;71.80
68215;DHT22;55036;52.138;5.236;2024-03-23T16:07:39;11.40;71.70
68215;DHT22;55036;52.138;5.236;2024-03-23T16:10:05;11.10;72.00
68215;DHT22;55036;52.138;5.236;2024-03-23T16:12:34;11.00;72.20
68215;DHT22;55036;52.138;5.236;2024-03-23T16:15:00;10.90;72.20
68215;DHT22;55036;52.138;5.236;2024-03-23T16:17:26;10.80;72.40
68215;DHT22;55036;52.138;5.236;2024-03-23T16:19:51;10.80;72.60
68215;DHT22;55036;52.138;5.236;2024-03-23T16:22:17;10.70;70.70
68215;DHT22;55036;52.138;5.236;2024-03-23T16:24:44;10.60;70.20
68215;DHT22;55036;52.138;5.236;2024-03-23T16:27:10;10.40;70.90
68215;DHT22;55036;52.138;5.236;2024-03-23T16:29:35;10.20;73.50
68215;DHT22;55036;52.138;5.236;2024-03-23T16:32:01;9.80;74.00
68215;DHT22;55036;52.138;5.236;2024-03-23T16:34:27;9.90;74.80
68215;DHT22;55036;52.138;5.236;2024-03-23T16:36:53;9.90;75.40
68215;DHT22;55036;52.138;5.236;2024-03-23T16:39:18;9.70;74.70